createdAt,value
2022-08-29T00:01:51.676Z,18.70
2022-08-29T00:04:22.040Z,18.60
2022-08-29T00:06:52.387Z,18.70
2022-08-29T00:09:22.591Z,18.80
2022-08-29T00:11:53.180Z,18.80
2022-08-29T00:14:23.801Z,18.80
2022-08-29T00:16:54.752Z,18.90
2022-08-29T00:19:25.090Z,18.90
2022-08-29T00:21:55.656Z,18.90
2022-08-29T00:24:25.874Z,18.90
2022-08-29T00:26:56.166Z,19.00
2022-08-29T00:29:26.419Z,19.00
2022-08-29T00:31:56.718Z,19.10
2022-08-29T00:34:26.955Z,19.10
2022-08-29T00:36:57.298Z,19.10
2022-08-29T00:39:28.133Z,19.10
2022-08-29T00:42:03.935Z,19.20
2022-08-29T00:44:34.647Z,19.20
2022-08-29T00:47:13.858Z,19.20
2022-08-29T00:49:51.379Z,19.30
2022-08-29T00:52:33.392Z,19.30
2022-08-29T00:55:06.402Z,19.30
2022-08-29T00:57:37.527Z,19.30
2022-08-29T01:00:09.879Z,19.40
2022-08-29T01:02:43.114Z,19.40
2022-08-29T01:05:18.081Z,19.40
2022-08-29T01:07:50.079Z,19.40
2022-08-29T01:10:38.885Z,19.50
2022-08-29T01:13:11.121Z,19.50
2022-08-29T01:15:43.048Z,19.60
2022-08-29T01:18:15.296Z,19.50
2022-08-29T01:21:09.989Z,19.50
2022-08-29T01:24:07.462Z,19.60
2022-08-29T01:26:40.319Z,19.50
2022-08-29T01:29:11.328Z,19.60
2022-08-29T01:31:56.786Z,19.60
2022-08-29T01:34:29.750Z,19.60
2022-08-29T01:37:05.625Z,19.60
2022-08-29T01:39:39.491Z,19.70
2022-08-29T01:42:19.958Z,19.60
2022-08-29T01:44:58.744Z,19.70
2022-08-29T01:47:33.752Z,19.70
2022-08-29T01:50:08.508Z,19.70
2022-08-29T01:52:38.870Z,19.70
2022-08-29T01:55:09.632Z,19.70
2022-08-29T01:57:41.776Z,19.80
2022-08-29T02:00:14.965Z,19.70
2022-08-29T02:02:45.461Z,19.80
2022-08-29T02:05:15.810Z,19.80
2022-08-29T02:07:46.196Z,19.80
2022-08-29T02:10:16.486Z,19.80
2022-08-29T02:12:46.629Z,19.80
2022-08-29T02:15:17.535Z,19.90
2022-08-29T02:17:48.792Z,19.90
2022-08-29T02:20:19.243Z,19.90
2022-08-29T02:22:49.607Z,19.90
2022-08-29T02:25:37.821Z,19.90
2022-08-29T02:28:08.165Z,20.00
2022-08-29T02:30:39.577Z,20.00
2022-08-29T02:33:11.497Z,20.00
2022-08-29T02:35:43.003Z,20.00
2022-08-29T02:38:14.429Z,20.00
2022-08-29T02:40:45.879Z,20.00
2022-08-29T02:43:17.935Z,20.00
2022-08-29T02:45:50.452Z,20.00
2022-08-29T02:48:21.066Z,20.00
2022-08-29T02:50:55.207Z,20.00
2022-08-29T02:53:28.195Z,20.10
2022-08-29T02:55:58.624Z,20.00
2022-08-29T02:58:29.121Z,20.10
2022-08-29T03:00:59.704Z,20.00
2022-08-29T03:03:29.979Z,20.00
2022-08-29T03:06:00.348Z,20.10
2022-08-29T03:08:33.821Z,20.10
2022-08-29T03:11:07.607Z,20.10
2022-08-29T03:13:38.695Z,20.10
2022-08-29T03:16:10.460Z,20.10
2022-08-29T03:18:40.871Z,20.10
2022-08-29T03:21:23.585Z,20.10
2022-08-29T03:23:54.765Z,20.10
2022-08-29T03:26:26.050Z,20.10
2022-08-29T03:28:56.291Z,20.10
2022-08-29T03:31:26.814Z,20.10
2022-08-29T03:33:57.947Z,20.10
2022-08-29T03:36:31.169Z,20.10
2022-08-29T03:39:01.376Z,20.10
2022-08-29T03:41:32.667Z,20.10
2022-08-29T03:44:02.962Z,20.10
2022-08-29T03:46:33.191Z,20.10
2022-08-29T03:49:03.440Z,20.10
2022-08-29T03:51:33.978Z,20.20
2022-08-29T03:54:04.433Z,20.20
2022-08-29T03:56:35.217Z,20.20
2022-08-29T03:59:05.436Z,20.20
2022-08-29T04:01:35.964Z,20.20
2022-08-29T04:04:06.566Z,20.20
2022-08-29T04:06:37.129Z,20.20
2022-08-29T04:09:07.284Z,20.20
2022-08-29T04:11:37.721Z,20.30
2022-08-29T04:14:07.968Z,20.20
2022-08-29T04:16:38.195Z,20.30
2022-08-29T04:19:08.993Z,20.30
2022-08-29T04:21:39.651Z,20.30
2022-08-29T04:24:09.989Z,20.30
2022-08-29T04:26:42.895Z,20.30
2022-08-29T04:29:15.541Z,20.30
2022-08-29T04:31:47.004Z,20.30
2022-08-29T04:34:17.495Z,20.30
2022-08-29T04:36:49.644Z,20.30
2022-08-29T04:39:20.471Z,20.30
2022-08-29T04:41:50.857Z,20.40
2022-08-29T04:44:21.111Z,20.30
2022-08-29T04:46:51.365Z,20.30
2022-08-29T04:49:23.273Z,20.40
2022-08-29T04:51:55.810Z,20.30
2022-08-29T04:54:26.117Z,20.40
2022-08-29T04:56:57.640Z,20.40
2022-08-29T04:59:28.617Z,20.40
2022-08-29T05:01:59.257Z,20.40
2022-08-29T05:04:29.600Z,20.40
2022-08-29T05:06:59.819Z,20.40
2022-08-29T05:09:30.081Z,20.40
2022-08-29T05:12:00.679Z,20.40
2022-08-29T05:14:30.816Z,20.40
2022-08-29T05:17:01.176Z,20.40
2022-08-29T05:19:34.346Z,20.40
2022-08-29T05:22:05.677Z,20.40
2022-08-29T05:24:38.933Z,20.40
2022-08-29T05:27:17.992Z,20.40
2022-08-29T05:29:49.655Z,20.50
2022-08-29T05:32:21.223Z,20.50
2022-08-29T05:34:52.320Z,20.50
2022-08-29T05:37:24.331Z,20.50
2022-08-29T05:39:54.903Z,20.50
2022-08-29T05:42:25.590Z,20.50
2022-08-29T05:44:56.003Z,20.60
2022-08-29T05:47:27.145Z,20.50
2022-08-29T05:49:57.399Z,20.60
2022-08-29T05:52:28.432Z,20.50
2022-08-29T05:54:58.789Z,20.50
2022-08-29T05:57:29.623Z,20.60
2022-08-29T05:59:59.870Z,20.60
2022-08-29T06:02:30.261Z,20.60
2022-08-29T06:05:00.816Z,20.60
2022-08-29T06:07:32.618Z,20.60
2022-08-29T06:10:08.337Z,20.60
2022-08-29T06:12:39.267Z,20.60
2022-08-29T06:15:09.953Z,20.60
2022-08-29T06:17:40.492Z,20.60
2022-08-29T06:20:11.547Z,20.60
2022-08-29T06:22:42.230Z,20.60
2022-08-29T06:25:37.325Z,20.60
2022-08-29T06:28:03.590Z,20.60
2022-08-29T06:30:37.205Z,20.60
2022-08-29T06:33:07.577Z,20.60
2022-08-29T06:35:39.496Z,20.60
2022-08-29T06:38:13.901Z,20.60
2022-08-29T06:40:44.820Z,20.60
2022-08-29T06:43:15.627Z,20.70
2022-08-29T06:45:46.270Z,20.70
2022-08-29T06:48:16.757Z,20.70
2022-08-29T06:50:47.105Z,20.70
2022-08-29T06:53:27.375Z,20.70
2022-08-29T06:56:11.199Z,20.70
2022-08-29T06:58:41.932Z,20.90
2022-08-29T07:01:20.232Z,21.00
2022-08-29T07:03:51.058Z,21.00
2022-08-29T07:06:21.673Z,21.10
2022-08-29T07:08:56.010Z,21.20
2022-08-29T07:11:39.014Z,21.30
2022-08-29T07:14:11.369Z,21.30
2022-08-29T07:16:41.993Z,21.30
2022-08-29T07:19:13.513Z,21.40
2022-08-29T07:21:43.729Z,21.50
2022-08-29T07:24:14.311Z,21.60
2022-08-29T07:26:46.440Z,21.50
2022-08-29T07:29:20.865Z,21.60
2022-08-29T07:31:51.844Z,21.50
2022-08-29T07:34:22.535Z,21.40
2022-08-29T07:36:53.002Z,21.30
2022-08-29T07:39:25.210Z,21.20
2022-08-29T07:41:56.227Z,21.20
2022-08-29T07:44:27.341Z,21.20
2022-08-29T07:47:05.209Z,21.20
2022-08-29T07:49:41.186Z,21.20
2022-08-29T07:52:12.454Z,21.10
2022-08-29T07:54:42.919Z,21.20
2022-08-29T07:57:13.416Z,21.10
2022-08-29T07:59:43.819Z,21.10
2022-08-29T08:02:14.066Z,21.10
2022-08-29T08:04:44.581Z,21.10
2022-08-29T08:07:15.969Z,21.10
2022-08-29T08:09:47.566Z,21.10
2022-08-29T08:12:17.828Z,21.10
2022-08-29T08:14:49.115Z,21.10
2022-08-29T08:17:19.322Z,21.10
2022-08-29T08:19:49.897Z,21.10
2022-08-29T08:22:20.140Z,21.10
2022-08-29T08:24:50.513Z,21.10
2022-08-29T08:27:20.697Z,21.10
2022-08-29T08:29:50.903Z,21.10
2022-08-29T08:32:21.157Z,21.10
2022-08-29T08:34:54.286Z,21.10
2022-08-29T08:37:27.730Z,21.10
2022-08-29T08:40:02.819Z,21.10
2022-08-29T08:42:44.033Z,21.20
2022-08-29T08:45:28.581Z,21.10
2022-08-29T08:48:09.848Z,21.10
2022-08-29T08:50:47.079Z,21.10
2022-08-29T08:53:25.443Z,21.10
2022-08-29T08:55:58.484Z,21.10
2022-08-29T08:58:46.638Z,21.10
2022-08-29T09:01:45.011Z,21.10
2022-08-29T09:04:15.194Z,21.10
2022-08-29T09:06:59.705Z,21.00
2022-08-29T09:09:51.184Z,21.00
2022-08-29T09:12:34.401Z,21.00
2022-08-29T09:15:15.762Z,21.00
2022-08-29T09:18:08.489Z,21.00
2022-08-29T09:20:41.442Z,21.00
2022-08-29T09:23:38.933Z,21.00
2022-08-29T09:26:09.330Z,21.00
2022-08-29T09:28:39.756Z,20.90
2022-08-29T09:31:29.474Z,20.90
2022-08-29T09:34:12.919Z,20.90
2022-08-29T09:36:50.571Z,20.90
2022-08-29T09:39:36.402Z,20.90
2022-08-29T09:42:15.767Z,20.90
2022-08-29T09:44:59.544Z,20.90
2022-08-29T09:47:32.399Z,20.90
2022-08-29T09:50:08.915Z,20.80
2022-08-29T09:53:05.798Z,20.90
2022-08-29T09:55:47.575Z,20.80
2022-08-29T09:58:23.707Z,20.80
2022-08-29T10:01:03.463Z,20.80
2022-08-29T10:03:45.887Z,20.80
2022-08-29T10:06:24.634Z,20.80
2022-08-29T10:09:02.738Z,20.80
2022-08-29T10:11:57.401Z,20.80
2022-08-29T10:14:49.911Z,20.70
2022-08-29T10:17:56.599Z,20.70
2022-08-29T10:20:34.542Z,20.60
2022-08-29T10:23:28.368Z,20.70
2022-08-29T10:26:01.089Z,20.60
2022-08-29T10:28:54.212Z,20.60
2022-08-29T10:31:49.168Z,20.60
2022-08-29T10:34:50.393Z,20.60
2022-08-29T10:38:03.691Z,20.60
2022-08-29T10:41:00.308Z,20.60
2022-08-29T10:43:54.562Z,20.60
2022-08-29T10:46:35.187Z,20.60
2022-08-29T10:49:44.967Z,20.50
2022-08-29T10:52:31.097Z,20.50
2022-08-29T10:55:24.294Z,20.50
2022-08-29T10:58:03.398Z,20.50
2022-08-29T11:00:54.718Z,20.50
2022-08-29T11:03:52.349Z,20.50
2022-08-29T11:06:31.532Z,20.50
2022-08-29T11:09:26.087Z,20.50
2022-08-29T11:12:17.732Z,20.50
2022-08-29T11:15:17.610Z,20.50
2022-08-29T11:17:55.486Z,20.50
2022-08-29T11:20:31.159Z,20.40
2022-08-29T11:23:21.851Z,20.40
2022-08-29T11:25:52.950Z,20.40
2022-08-29T11:28:29.327Z,20.40
2022-08-29T11:31:13.789Z,20.40
2022-08-29T11:33:52.595Z,20.40
2022-08-29T11:36:31.421Z,20.40
2022-08-29T11:39:24.571Z,20.40
2022-08-29T11:41:59.673Z,20.40
2022-08-29T11:44:46.316Z,20.40
2022-08-29T11:47:48.285Z,20.30
2022-08-29T11:50:38.292Z,20.40
2022-08-29T11:53:16.615Z,20.30
2022-08-29T11:56:08.534Z,20.40
2022-08-29T11:58:47.158Z,20.30
2022-08-29T12:01:38.557Z,20.40
2022-08-29T12:04:11.075Z,20.30
2022-08-29T12:07:16.851Z,20.30
2022-08-29T12:09:58.405Z,20.40
2022-08-29T12:12:51.257Z,20.30
2022-08-29T12:15:30.372Z,20.30
2022-08-29T12:18:24.658Z,20.30
2022-08-29T12:20:58.374Z,20.30
2022-08-29T12:23:33.882Z,20.30
2022-08-29T12:26:27.533Z,20.30
2022-08-29T12:29:10.496Z,20.30
2022-08-29T12:32:22.639Z,20.30
2022-08-29T12:35:18.964Z,20.20
2022-08-29T12:38:06.019Z,20.20
2022-08-29T12:40:50.840Z,20.20
2022-08-29T12:43:35.921Z,20.20
2022-08-29T12:46:37.823Z,20.20
2022-08-29T12:49:18.410Z,20.20
2022-08-29T12:51:56.848Z,20.20
2022-08-29T12:54:39.375Z,20.20
2022-08-29T12:57:18.105Z,20.20
2022-08-29T12:59:50.755Z,20.20
2022-08-29T13:02:29.292Z,20.20
2022-08-29T13:05:00.293Z,20.20
2022-08-29T13:07:32.343Z,20.20
2022-08-29T13:10:03.935Z,20.20
2022-08-29T13:12:38.931Z,20.20
2022-08-29T13:15:32.220Z,20.20
2022-08-29T13:18:04.194Z,20.20
2022-08-29T13:21:13.474Z,20.10
2022-08-29T13:23:49.669Z,20.10
2022-08-29T13:26:22.277Z,20.10
2022-08-29T13:28:59.784Z,20.10
2022-08-29T13:31:41.608Z,20.10
2022-08-29T13:34:23.131Z,20.10
2022-08-29T13:37:01.607Z,20.10
2022-08-29T13:39:41.010Z,20.10
2022-08-29T13:42:25.019Z,20.10
2022-08-29T13:44:57.886Z,20.00
2022-08-29T13:47:35.445Z,20.00
2022-08-29T13:50:11.610Z,20.00
2022-08-29T13:52:42.315Z,20.00
2022-08-29T13:55:12.933Z,20.00
2022-08-29T13:57:46.705Z,20.00
2022-08-29T14:00:17.719Z,20.00
2022-08-29T14:03:04.678Z,20.00
2022-08-29T14:05:36.762Z,19.90
2022-08-29T14:08:08.582Z,19.90
2022-08-29T14:10:38.814Z,19.90
2022-08-29T14:13:09.418Z,19.90
2022-08-29T14:15:40.853Z,19.90
2022-08-29T14:18:11.267Z,19.90
2022-08-29T14:20:41.642Z,19.90
2022-08-29T14:23:12.037Z,19.90
2022-08-29T14:25:42.436Z,19.90
2022-08-29T14:28:16.117Z,19.90
2022-08-29T14:30:47.719Z,19.90
2022-08-29T14:33:22.338Z,19.80
2022-08-29T14:35:53.552Z,19.80
2022-08-29T14:38:27.018Z,19.80
2022-08-29T14:40:57.265Z,19.80
2022-08-29T14:43:27.660Z,19.80
2022-08-29T14:45:57.983Z,19.80
2022-08-29T14:48:29.512Z,19.80
2022-08-29T14:50:59.786Z,19.80
2022-08-29T14:53:31.507Z,19.80
2022-08-29T14:56:03.813Z,19.80
2022-08-29T14:58:34.148Z,19.70
2022-08-29T15:01:04.480Z,19.70
2022-08-29T15:03:35.152Z,19.70
2022-08-29T15:06:08.418Z,19.70
2022-08-29T15:08:38.726Z,19.70
2022-08-29T15:11:09.111Z,19.70
2022-08-29T15:13:39.491Z,19.70
2022-08-29T15:16:10.709Z,19.70
2022-08-29T15:21:32.831Z,19.60
2022-08-29T15:24:03.142Z,19.60
2022-08-29T15:26:33.694Z,19.60
2022-08-29T15:29:03.874Z,19.60
2022-08-29T15:31:34.153Z,19.60
2022-08-29T15:34:04.459Z,19.60
2022-08-29T15:36:35.932Z,19.60
2022-08-29T15:39:07.579Z,19.50
2022-08-29T15:41:38.010Z,19.50
2022-08-29T15:44:11.657Z,19.50
2022-08-29T15:46:50.408Z,19.50
2022-08-29T15:49:22.719Z,19.50
2022-08-29T15:51:56.070Z,19.50
2022-08-29T15:54:27.149Z,19.50
2022-08-29T15:56:57.456Z,19.40
2022-08-29T15:59:54.434Z,19.40
2022-08-29T16:02:19.280Z,19.40
2022-08-29T16:04:52.543Z,19.40
2022-08-29T16:07:28.818Z,19.40
2022-08-29T16:10:04.726Z,19.40
2022-08-29T16:12:41.477Z,19.40
2022-08-29T16:15:12.266Z,19.30
2022-08-29T16:17:42.635Z,19.30
2022-08-29T16:20:13.531Z,19.30
2022-08-29T16:22:45.068Z,19.30
2022-08-29T16:25:16.681Z,19.30
2022-08-29T16:27:47.506Z,19.30
2022-08-29T16:30:19.119Z,19.30
2022-08-29T16:32:51.160Z,19.30
2022-08-29T16:35:24.048Z,19.30
2022-08-29T16:38:02.475Z,19.30
2022-08-29T16:40:34.350Z,19.30
2022-08-29T16:43:05.976Z,19.20
2022-08-29T16:45:36.520Z,19.20
2022-08-29T16:48:17.534Z,19.20
2022-08-29T16:50:48.795Z,19.20
2022-08-29T16:53:20.966Z,19.20
2022-08-29T16:55:51.181Z,19.20
2022-08-29T16:58:39.305Z,19.20
2022-08-29T17:01:09.725Z,19.20
2022-08-29T17:03:39.896Z,19.10
2022-08-29T17:06:10.356Z,19.10
2022-08-29T17:08:40.594Z,19.10
2022-08-29T17:11:10.523Z,19.10
2022-08-29T17:13:43.904Z,19.10
2022-08-29T17:16:14.626Z,19.10
2022-08-29T17:18:45.535Z,19.10
2022-08-29T17:21:16.363Z,19.10
2022-08-29T17:23:47.802Z,19.10
2022-08-29T17:26:19.411Z,19.10
2022-08-29T17:28:49.943Z,19.00
2022-08-29T17:31:20.505Z,19.00
2022-08-29T17:33:50.982Z,19.10
2022-08-29T17:36:21.590Z,19.00
2022-08-29T17:38:52.096Z,19.00
2022-08-29T17:41:24.894Z,19.00
2022-08-29T17:43:55.660Z,19.00
2022-08-29T17:46:26.072Z,19.00
2022-08-29T17:48:56.287Z,19.00
2022-08-29T17:51:26.794Z,19.00
2022-08-29T17:53:57.352Z,19.00
2022-08-29T17:56:44.549Z,18.90
2022-08-29T17:59:16.714Z,18.90
2022-08-29T18:01:48.280Z,18.90
2022-08-29T18:04:19.151Z,18.90
2022-08-29T18:06:49.605Z,18.90
2022-08-29T18:09:19.921Z,18.90
2022-08-29T18:11:53.029Z,18.90
2022-08-29T18:14:25.513Z,18.90
2022-08-29T18:16:56.626Z,18.90
2022-08-29T18:19:28.662Z,18.90
2022-08-29T18:21:59.471Z,18.90
2022-08-29T18:24:30.226Z,18.80
2022-08-29T18:27:00.511Z,18.80
2022-08-29T18:29:30.791Z,18.80
2022-08-29T18:32:02.813Z,18.80
2022-08-29T18:34:33.140Z,18.80
2022-08-29T18:37:03.816Z,18.80
2022-08-29T18:39:34.112Z,18.80
2022-08-29T18:42:13.364Z,18.80
2022-08-29T18:44:50.728Z,18.80
2022-08-29T18:47:22.393Z,18.70
2022-08-29T18:50:10.308Z,18.70
2022-08-29T18:52:40.884Z,18.70
2022-08-29T18:55:15.835Z,18.70
2022-08-29T18:57:48.763Z,18.70
2022-08-29T19:00:20.286Z,18.70
2022-08-29T19:02:50.785Z,18.70
2022-08-29T19:05:22.477Z,18.70
2022-08-29T19:07:53.259Z,18.70
2022-08-29T19:10:24.520Z,18.60
2022-08-29T19:12:56.720Z,18.60
2022-08-29T19:15:29.753Z,18.60
2022-08-29T19:18:00.238Z,18.60
2022-08-29T19:20:49.718Z,18.60
2022-08-29T19:23:21.567Z,18.60
2022-08-29T19:25:52.646Z,18.60
2022-08-29T19:28:24.180Z,18.60
2022-08-29T19:30:55.452Z,18.50
2022-08-29T19:33:26.446Z,18.60
2022-08-29T19:35:57.543Z,18.60
2022-08-29T19:38:29.280Z,18.60
2022-08-29T19:41:00.770Z,18.60
2022-08-29T19:43:36.370Z,18.60
2022-08-29T19:51:37.159Z,18.50
2022-08-29T19:54:07.803Z,18.50
2022-08-29T19:56:38.331Z,18.50
2022-08-29T19:59:08.908Z,18.50
2022-08-29T20:01:41.417Z,18.50
2022-08-29T20:04:11.705Z,18.50
2022-08-29T20:06:42.598Z,18.50
2022-08-29T20:09:14.263Z,18.50
2022-08-29T20:11:44.837Z,18.50
2022-08-29T20:14:15.214Z,18.40
2022-08-29T20:16:46.579Z,18.40
2022-08-29T20:19:17.208Z,18.40
2022-08-29T20:21:47.609Z,18.40
2022-08-29T20:24:18.300Z,18.40
2022-08-29T20:26:51.218Z,18.40
2022-08-29T20:29:23.902Z,18.40
2022-08-29T20:31:57.321Z,18.40
2022-08-29T20:34:31.434Z,18.30
2022-08-29T20:37:10.836Z,18.40
2022-08-29T20:39:49.889Z,18.40
2022-08-29T20:42:23.397Z,18.40
2022-08-29T20:44:56.802Z,18.40
2022-08-29T20:47:27.912Z,18.30
2022-08-29T20:49:58.723Z,18.30
2022-08-29T20:52:29.017Z,18.30
2022-08-29T20:55:00.064Z,18.40
2022-08-29T20:57:30.325Z,18.40
2022-08-29T21:00:00.501Z,18.50
2022-08-29T21:02:48.449Z,18.50
2022-08-29T21:05:36.740Z,18.50
2022-08-29T21:08:07.377Z,18.60
2022-08-29T21:10:38.945Z,18.60
2022-08-29T21:13:12.526Z,18.60
2022-08-29T21:15:44.360Z,18.60
2022-08-29T21:18:20.127Z,18.70
2022-08-29T21:20:54.089Z,18.70
2022-08-29T21:23:26.705Z,18.70
2022-08-29T21:25:59.339Z,18.80
2022-08-29T21:28:30.941Z,18.70
2022-08-29T21:31:13.667Z,18.80
2022-08-29T21:33:46.597Z,18.80
2022-08-29T21:36:20.547Z,18.80
2022-08-29T21:38:59.329Z,18.80
2022-08-29T21:41:32.566Z,18.90
2022-08-29T21:44:02.984Z,18.90
2022-08-29T21:46:36.389Z,18.90
2022-08-29T21:49:08.790Z,18.90
2022-08-29T21:51:39.382Z,18.90
2022-08-29T21:54:13.342Z,18.90
2022-08-29T21:56:45.128Z,19.00
2022-08-29T21:59:16.833Z,19.00
2022-08-29T22:01:49.049Z,19.00
2022-08-29T22:04:28.363Z,19.10
2022-08-29T22:07:01.132Z,19.10
2022-08-29T22:09:32.910Z,19.10
2022-08-29T22:12:03.374Z,19.10
2022-08-29T22:14:51.620Z,19.10
2022-08-29T22:17:21.896Z,19.20
2022-08-29T22:19:52.036Z,19.20
2022-08-29T22:22:22.405Z,19.20
2022-08-29T22:24:52.646Z,19.20
2022-08-29T22:27:22.968Z,19.30
2022-08-29T22:29:53.155Z,19.30
2022-08-29T22:32:23.497Z,19.30
2022-08-29T22:34:53.842Z,19.30
2022-08-29T22:37:24.242Z,19.30
2022-08-29T22:39:54.438Z,19.30
2022-08-29T22:42:25.482Z,19.30
2022-08-29T22:45:04.012Z,19.30
2022-08-29T22:47:37.340Z,19.30
2022-08-29T22:50:10.793Z,19.40
2022-08-29T22:52:41.234Z,19.40
2022-08-29T22:55:15.383Z,19.50
2022-08-29T22:57:47.421Z,19.50
2022-08-29T23:00:21.722Z,19.60
2022-08-29T23:02:53.187Z,19.60
2022-08-29T23:05:25.901Z,19.60
2022-08-29T23:07:56.187Z,19.60
2022-08-29T23:10:26.441Z,19.60
2022-08-29T23:12:56.863Z,19.70
2022-08-29T23:15:27.153Z,19.70
2022-08-29T23:17:57.573Z,19.70
2022-08-29T23:20:29.249Z,19.70
2022-08-29T23:22:59.839Z,19.70
2022-08-29T23:25:31.045Z,19.70
2022-08-29T23:28:02.685Z,19.80
2022-08-29T23:30:32.936Z,19.80
2022-08-29T23:33:03.161Z,19.80
2022-08-29T23:35:33.363Z,19.80
2022-08-29T23:38:03.498Z,19.80
2022-08-29T23:40:38.400Z,19.80
2022-08-29T23:43:08.661Z,19.80
2022-08-29T23:45:39.153Z,19.80
2022-08-29T23:48:09.279Z,19.80
2022-08-29T23:50:39.952Z,19.80
2022-08-29T23:53:10.220Z,19.90
2022-08-29T23:55:42.462Z,19.90
2022-08-29T23:58:12.830Z,19.90
